Time;durP1;ratioP1;P1;durP2;ratioP2;P2;SDS_P1;SDS_P2;PMS_P1;PMS_P2;Temp;Humidity;BMP_temperature;BMP_pressure;BME280_temperature;BME280_humidity;BME280_pressure;Samples;Min_cycle;Max_cycle;Signal;HPM_P1;HPM_P2
2022/03/15 00:00:07;;;;;;;0.20;0.20;;;;;;;20.59;34.72;102421.78;5130700;27;20089;-28
2022/03/15 00:02:33;;;;;;;0.20;0.20;;;;;;;20.58;34.81;102425.66;5132353;27;20093;-29
2022/03/15 00:04:59;;;;;;;0.20;0.20;;;;;;;20.58;34.71;102431.19;5130555;27;20046;-29
2022/03/15 00:07:26;;;;;;;0.20;0.20;;;;;;;20.59;34.91;102424.56;5134054;27;20119;-28
2022/03/15 00:09:51;;;;;;;0.20;0.20;;;;;;;20.59;34.82;102423.72;5131549;27;20051;-29
2022/03/15 00:12:17;;;;;;;0.20;0.20;;;;;;;20.59;34.81;102420.97;5132433;27;20062;-28
2022/03/15 00:14:44;;;;;;;0.20;0.20;;;;;;;20.59;34.63;102423.72;5131365;27;20047;-28
2022/03/15 00:17:10;;;;;;;0.20;0.20;;;;;;;20.58;34.63;102431.19;5131551;27;20053;-29
2022/03/15 00:19:36;;;;;;;0.20;0.20;;;;;;;20.59;34.91;102421.78;5133738;27;20079;-30
2022/03/15 00:22:05;;;;;;;0.20;0.20;;;;;;;20.60;34.58;102419.91;5131155;27;20039;-29
2022/03/15 00:24:31;;;;;;;0.17;0.17;;;;;;;20.60;34.92;102419.91;5132901;27;20039;-29
2022/03/15 00:26:57;;;;;;;0.20;0.20;;;;;;;20.59;34.58;102419.03;5133273;27;20054;-29
2022/03/15 00:29:23;;;;;;;0.20;0.20;;;;;;;20.58;34.90;102417.34;5132138;27;20097;-31
2022/03/15 00:31:49;;;;;;;0.20;0.20;;;;;;;20.59;34.70;102413.50;5131448;27;20142;-29
2022/03/15 00:34:16;;;;;;;0.20;0.20;;;;;;;20.58;34.56;102417.34;5131178;27;20140;-29
2022/03/15 00:36:42;;;;;;;0.20;0.20;;;;;;;20.59;34.55;102420.97;5134217;27;20511;-30
2022/03/15 00:39:08;;;;;;;0.10;0.10;;;;;;;20.59;34.72;102415.44;5133237;27;21176;-32
2022/03/15 00:41:34;;;;;;;0.20;0.20;;;;;;;20.57;34.71;102407.38;5131089;27;20092;-29
2022/03/15 00:44:00;;;;;;;0.20;0.20;;;;;;;20.58;34.96;102402.69;5131082;27;20133;-30
2022/03/15 00:46:26;;;;;;;0.20;0.20;;;;;;;20.59;34.96;102404.34;5131561;27;20081;-31
2022/03/15 00:48:52;;;;;;;0.20;0.20;;;;;;;20.58;34.66;102406.28;5129276;27;20039;-28
2022/03/15 00:51:18;;;;;;;0.20;0.20;;;;;;;20.58;34.95;102409.06;5128456;27;20337;-31
2022/03/15 00:53:44;;;;;;;0.17;0.17;;;;;;;20.58;34.97;102403.53;5132963;27;20050;-29
2022/03/15 00:56:10;;;;;;;0.20;0.20;;;;;;;20.59;34.78;102407.13;5128381;27;20494;-32
2022/03/15 00:58:36;;;;;;;0.20;0.20;;;;;;;20.58;34.75;102405.47;5133566;27;20477;-30
2022/03/15 01:01:02;;;;;;;0.20;0.20;;;;;;;20.57;34.83;102407.38;5127860;27;20314;-29
2022/03/15 01:03:27;;;;;;;0.20;0.20;;;;;;;20.58;35.03;102411.81;5128432;27;20080;-29
2022/03/15 01:05:53;;;;;;;0.20;0.20;;;;;;;20.57;34.70;102404.63;5128755;27;20464;-29
2022/03/15 01:08:19;;;;;;;0.20;0.20;;;;;;;20.58;34.72;102422.06;5132775;27;20050;-29
2022/03/15 01:10:44;;;;;;;0.20;0.20;;;;;;;20.58;34.80;102413.75;5131301;27;20043;-29
2022/03/15 01:13:11;;;;;;;0.10;0.10;;;;;;;20.58;34.62;102411.00;5133214;27;20409;-30
2022/03/15 01:15:42;;;;;;;0.20;0.20;;;;;;;20.58;34.92;102408.22;5131739;27;20046;-31
2022/03/15 01:18:09;;;;;;;0.20;0.20;;;;;;;20.58;34.94;102397.97;5129621;27;20383;-29
2022/03/15 01:20:39;;;;;;;0.20;0.20;;;;;;;20.57;34.69;102404.63;5129235;27;20135;-28
2022/03/15 01:23:04;;;;;;;0.10;0.10;;;;;;;20.57;34.75;102401.84;5133188;27;20074;-30
2022/03/15 01:25:30;;;;;;;0.20;0.20;;;;;;;20.58;34.72;102409.06;5128688;27;20046;-28
2022/03/15 01:27:56;;;;;;;0.10;0.10;;;;;;;20.57;34.75;102401.03;5131607;27;20458;-32
2022/03/15 01:30:23;;;;;;;0.10;0.10;;;;;;;20.56;35.01;102400.19;5129034;27;20224;-28
2022/03/15 01:32:48;;;;;;;0.20;0.20;;;;;;;20.57;34.98;102401.84;5132371;27;20053;-29
2022/03/15 01:35:15;;;;;;;0.20;0.20;;;;;;;20.57;34.72;102398.25;5129290;27;20043;-29
2022/03/15 01:37:40;;;;;;;0.20;0.20;;;;;;;20.57;34.67;102387.19;5131604;27;20282;-29
2022/03/15 01:40:07;;;;;;;0.10;0.10;;;;;;;20.57;34.78;102387.19;5129750;27;20039;-30
2022/03/15 01:42:32;;;;;;;0.20;0.20;;;;;;;20.58;35.02;102386.06;5128822;27;20079;-29
2022/03/15 01:45:02;;;;;;;0.20;0.20;;;;;;;20.58;34.97;102375.84;5130797;27;20741;-29
2022/03/15 01:47:27;;;;;;;0.20;0.20;;;;;;;20.56;34.62;102380.81;5129913;27;20058;-30
2022/03/15 01:49:53;;;;;;;0.20;0.20;;;;;;;20.57;34.78;102379.72;5130308;27;20047;-30
2022/03/15 01:52:19;;;;;;;0.20;0.20;;;;;;;20.57;34.65;102378.88;5125645;27;20545;-29
2022/03/15 01:54:45;;;;;;;0.20;0.20;;;;;;;20.58;34.79;102386.06;5128592;27;20043;-29
2022/03/15 01:57:11;;;;;;;0.20;0.20;;;;;;;20.58;35.03;102383.31;5130338;27;20034;-30
2022/03/15 01:59:37;;;;;;;0.20;0.20;;;;;;;20.55;34.78;102387.41;5130657;27;20047;-30
2022/03/15 02:02:03;;;;;;;0.20;0.20;;;;;;;20.56;34.65;102388.28;5129195;27;20074;-29
2022/03/15 02:04:29;;;;;;;0.20;0.20;;;;;;;20.55;34.64;102379.13;5130903;27;20174;-29
2022/03/15 02:07:05;;;;;;;0.20;0.20;;;;;;;20.56;34.40;102378.03;5129243;27;20490;-30
2022/03/15 02:09:31;;;;;;;0.20;0.20;;;;;;;20.57;34.81;102379.72;5092064;27;20043;-29
2022/03/15 02:11:58;;;;;;;0.20;0.20;;;;;;;20.57;34.74;102376.94;5128952;27;20055;-30
2022/03/15 02:14:24;;;;;;;0.20;0.20;;;;;;;20.57;34.94;102387.19;5130870;27;20077;-31
2022/03/15 02:16:50;;;;;;;0.20;0.20;;;;;;;20.57;34.91;102382.47;5128291;27;20065;-29
2022/03/15 02:19:16;;;;;;;0.20;0.20;;;;;;;20.56;34.78;102378.03;5128759;27;20669;-28
2022/03/15 02:21:41;;;;;;;0.20;0.20;;;;;;;20.56;34.72;102366.97;5128174;27;20046;-30
2022/03/15 02:24:07;;;;;;;0.10;0.10;;;;;;;20.57;34.63;102374.19;5130821;27;20046;-29
2022/03/15 02:26:33;;;;;;;0.20;0.20;;;;;;;20.57;34.74;102365.03;5131060;27;20043;-29
2022/03/15 02:28:59;;;;;;;0.20;0.20;;;;;;;20.55;34.71;102365.28;5132705;27;20374;-29
2022/03/15 02:31:24;;;;;;;0.10;0.10;;;;;;;20.56;34.91;102357.84;5126015;27;20039;-28
2022/03/15 02:33:50;;;;;;;0.10;0.10;;;;;;;20.56;34.78;102361.44;5134720;27;20421;-30
2022/03/15 02:36:16;;;;;;;0.20;0.20;;;;;;;20.56;34.82;102355.91;5133411;27;20043;-28
2022/03/15 02:38:43;;;;;;;0.20;0.20;;;;;;;20.56;34.98;102352.31;5129585;27;20171;-28
2022/03/15 02:41:08;;;;;;;0.20;0.20;;;;;;;20.55;34.85;102351.44;5128346;27;20843;-30
2022/03/15 02:43:34;;;;;;;0.20;0.20;;;;;;;20.57;34.98;102356.72;5129652;27;20054;-28
2022/03/15 02:46:00;;;;;;;0.20;0.20;;;;;;;20.54;34.63;102347.00;5132875;27;20058;-29
2022/03/15 02:48:25;;;;;;;0.20;0.20;;;;;;;20.56;34.63;102342.06;5131416;27;20465;-28
2022/03/15 02:50:51;;;;;;;0.20;0.20;;;;;;;20.56;35.07;102335.69;5131425;27;20422;-28
2022/03/15 02:53:17;;;;;;;0.20;0.20;;;;;;;20.54;34.93;102328.47;5126676;27;20043;-28
2022/03/15 02:55:43;;;;;;;0.10;0.10;;;;;;;20.54;34.81;102322.09;5131749;27;21516;-29
2022/03/15 02:58:09;;;;;;;0.20;0.20;;;;;;;20.56;34.70;102327.38;5129523;27;20753;-29
2022/03/15 03:00:35;;;;;;;0.20;0.20;;;;;;;20.56;34.99;102321.84;5127692;27;20049;-28
2022/03/15 03:03:02;;;;;;;0.20;0.20;;;;;;;20.55;34.80;102321.00;5127126;27;20058;-28
2022/03/15 03:05:28;;;;;;;0.20;0.20;;;;;;;20.56;34.63;102327.38;5130075;27;20043;-28
2022/03/15 03:07:54;;;;;;;0.10;0.10;;;;;;;20.55;34.95;102326.53;5135226;27;20166;-29
2022/03/15 03:10:20;;;;;;;0.20;0.20;;;;;;;20.54;35.06;102322.09;5134595;27;20869;-29
2022/03/15 03:12:47;;;;;;;0.20;0.20;;;;;;;20.56;34.54;102319.09;5128838;27;20047;-29
2022/03/15 03:15:13;;;;;;;0.10;0.10;;;;;;;20.54;35.04;102316.56;5130936;27;20443;-29
2022/03/15 03:17:41;;;;;;;0.20;0.20;;;;;;;20.54;34.89;102317.38;5129866;27;20486;-29
2022/03/15 03:20:09;;;;;;;0.20;0.20;;;;;;;20.54;34.88;102316.56;5126204;27;20058;-30
2022/03/15 03:22:36;;;;;;;0.10;0.10;;;;;;;20.56;34.85;102313.56;5137813;27;20054;-28
2022/03/15 03:25:03;;;;;;;0.20;0.20;;;;;;;20.53;34.66;102310.19;5129406;27;20078;-29
2022/03/15 03:27:29;;;;;;;0.10;0.10;;;;;;;20.54;34.73;102305.50;5132169;27;20043;-29
2022/03/15 03:29:57;;;;;;;0.20;0.20;;;;;;;20.55;34.62;102307.16;5136473;27;20044;-29
2022/03/15 03:32:23;;;;;;;0.10;0.10;;;;;;;20.54;34.62;102300.78;5131919;27;20224;-28
2022/03/15 03:34:49;;;;;;;0.10;0.10;;;;;;;20.53;34.90;102304.66;5136770;27;20039;-28
2022/03/15 03:37:14;;;;;;;0.10;0.10;;;;;;;20.53;34.72;102310.19;5134271;27;20047;-30
2022/03/15 03:39:40;;;;;;;0.10;0.10;;;;;;;20.54;34.76;102308.25;5133413;27;20047;-29
2022/03/15 03:42:06;;;;;;;0.10;0.10;;;;;;;20.54;35.06;102311.84;5129908;27;20065;-28
2022/03/15 03:44:33;;;;;;;0.20;0.20;;;;;;;20.55;35.14;102304.38;5133129;27;20392;-28
2022/03/15 03:46:59;;;;;;;0.20;0.20;;;;;;;20.53;34.86;102309.34;5133613;27;20562;-29
2022/03/15 03:49:24;;;;;;;0.20;0.20;;;;;;;20.54;34.98;102309.09;5134267;27;20206;-28
2022/03/15 03:51:51;;;;;;;0.20;0.20;;;;;;;20.55;34.71;102307.16;5129272;27;20047;-28
2022/03/15 03:54:16;;;;;;;0.20;0.20;;;;;;;20.54;35.07;102316.56;5133790;27;20043;-27
2022/03/15 03:56:42;;;;;;;0.20;0.20;;;;;;;20.56;35.01;102308.84;5129814;27;20130;-28
2022/03/15 03:59:08;;;;;;;0.20;0.20;;;;;;;20.55;34.98;102301.63;5134830;27;20042;-28
2022/03/15 04:01:34;;;;;;;0.10;0.10;;;;;;;20.55;34.92;102304.38;5129114;27;20051;-28
2022/03/15 04:04:05;;;;;;;0.20;0.20;;;;;;;20.54;34.96;102299.94;5132951;27;20043;-28
2022/03/15 04:06:33;;;;;;;0.10;0.10;;;;;;;20.54;34.89;102297.19;5135029;27;20039;-28
2022/03/15 04:08:59;;;;;;;0.10;0.10;;;;;;;20.54;34.84;102288.88;5135770;27;20127;-29
2022/03/15 04:11:25;;;;;;;0.10;0.10;;;;;;;20.53;34.91;102295.50;5129612;27;20063;-28
2022/03/15 04:13:51;;;;;;;0.20;0.20;;;;;;;20.54;34.72;102302.72;5116811;27;20062;-28
2022/03/15 04:16:17;;;;;;;0.20;0.20;;;;;;;20.54;34.80;102313.78;5131500;27;20631;-28
2022/03/15 04:18:43;;;;;;;0.20;0.20;;;;;;;20.55;34.93;102312.69;5136369;27;20055;-28
2022/03/15 04:21:09;;;;;;;0.20;0.20;;;;;;;20.55;35.06;102307.16;5131388;27;20047;-29
2022/03/15 04:23:35;;;;;;;0.10;0.10;;;;;;;20.54;34.64;102302.72;5134894;27;20513;-28
2022/03/15 04:26:01;;;;;;;0.10;0.10;;;;;;;20.54;34.75;102303.56;5130247;27;20047;-29
2022/03/15 04:28:26;;;;;;;0.10;0.10;;;;;;;20.54;34.99;102302.72;5115501;27;20170;-28
2022/03/15 04:30:52;;;;;;;0.13;0.13;;;;;;;20.53;34.93;102301.06;5133800;27;20592;-28
2022/03/15 04:33:18;;;;;;;0.20;0.20;;;;;;;20.53;34.75;102299.13;5133277;27;20091;-28
2022/03/15 04:35:44;;;;;;;0.20;0.20;;;;;;;20.54;34.73;102295.25;5132212;27;20129;-30
2022/03/15 04:38:09;;;;;;;0.10;0.10;;;;;;;20.56;34.99;102285.88;5134744;27;20095;-28
2022/03/15 04:40:35;;;;;;;0.17;0.17;;;;;;;20.54;34.82;102286.94;5134355;27;20066;-30
2022/03/15 04:43:01;;;;;;;0.20;0.20;;;;;;;20.53;34.98;102288.03;5129798;27;20090;-29
2022/03/15 04:45:27;;;;;;;0.20;0.20;;;;;;;20.53;34.99;102285.28;5129844;27;20060;-28
2022/03/15 04:47:53;;;;;;;0.10;0.10;;;;;;;20.54;34.86;102288.88;5131526;27;20047;-30
2022/03/15 04:50:18;;;;;;;0.13;0.13;;;;;;;20.55;34.89;102282.25;5130208;27;20046;-28
2022/03/15 04:52:44;;;;;;;0.20;0.20;;;;;;;20.54;35.02;102283.34;5133795;27;20074;-28
2022/03/15 04:55:11;;;;;;;0.20;0.20;;;;;;;20.54;34.50;102283.34;5128845;27;20117;-31
2022/03/15 04:57:36;;;;;;;0.20;0.20;;;;;;;20.52;34.98;102285.53;5133849;27;20273;-28
2022/03/15 05:00:08;;;;;;;0.10;0.10;;;;;;;20.53;35.00;102279.75;5131140;27;20107;-28
2022/03/15 05:02:35;;;;;;;0.10;0.10;;;;;;;20.55;34.78;102276.72;5120442;27;20070;-29
2022/03/15 05:05:02;;;;;;;0.10;0.10;;;;;;;20.52;34.84;102268.94;5139549;27;20078;-28
2022/03/15 05:07:28;;;;;;;0.10;0.10;;;;;;;20.53;35.05;102265.91;5116305;27;20043;-28
2022/03/15 05:12:40;;;;;;;0.13;0.13;;;;;;;20.53;34.96;102263.13;5118557;27;21263;-29
2022/03/15 05:15:06;;;;;;;0.20;0.20;;;;;;;20.52;35.02;102255.94;5135875;27;20370;-28
2022/03/15 05:17:31;;;;;;;0.10;0.10;;;;;;;20.53;35.02;102256.78;5137443;27;20044;-28
2022/03/15 05:19:58;;;;;;;0.20;0.20;;;;;;;20.52;34.67;102255.94;5137479;27;20077;-28
2022/03/15 05:22:23;;;;;;;0.20;0.20;;;;;;;20.52;35.16;102255.94;5135335;27;20071;-29
2022/03/15 05:24:49;;;;;;;0.10;0.10;;;;;;;20.53;34.81;102254.84;5133920;27;20101;-28
2022/03/15 05:27:16;;;;;;;0.20;0.20;;;;;;;20.53;34.92;102248.47;5127792;27;20039;-29
2022/03/15 05:29:42;;;;;;;0.20;0.20;;;;;;;20.52;34.82;102258.72;5129843;27;20078;-29
2022/03/15 05:32:08;;;;;;;0.10;0.10;;;;;;;20.53;34.93;102246.53;5126587;27;20084;-29
2022/03/15 05:34:33;;;;;;;0.20;0.20;;;;;;;20.53;35.06;102252.06;5132234;27;20043;-28
2022/03/15 05:36:59;;;;;;;0.10;0.10;;;;;;;20.54;34.85;102255.66;5135741;27;20409;-28
2022/03/15 05:39:25;;;;;;;0.10;0.10;;;;;;;20.54;34.83;102250.13;5131670;27;20055;-29
2022/03/15 05:41:51;;;;;;;0.10;0.10;;;;;;;20.53;34.74;102251.25;5128309;27;20135;-30
2022/03/15 05:44:17;;;;;;;0.20;0.20;;;;;;;20.53;34.78;102245.69;5127765;27;20044;-29
2022/03/15 05:46:42;;;;;;;0.15;0.15;;;;;;;20.53;34.89;102238.22;5134370;27;20043;-28
2022/03/15 05:49:08;;;;;;;0.10;0.10;;;;;;;20.54;34.69;102236.28;5127039;27;20378;-29
2022/03/15 05:51:34;;;;;;;0.10;0.10;;;;;;;20.53;34.71;102241.00;5125132;27;20516;-28
2022/03/15 05:54:00;;;;;;;0.10;0.10;;;;;;;20.51;34.78;102242.38;5130446;27;20047;-28
2022/03/15 05:56:25;;;;;;;0.20;0.20;;;;;;;20.53;34.93;102237.41;5128008;27;20401;-28
2022/03/15 05:58:51;;;;;;;0.20;0.20;;;;;;;20.53;34.99;102248.47;5124525;27;20043;-28
2022/03/15 06:01:17;;;;;;;0.20;0.20;;;;;;;20.52;34.77;102236.56;5129135;27;20035;-28
2022/03/15 06:03:43;;;;;;;0.20;0.20;;;;;;;20.52;34.79;102232.97;5127936;27;20646;-30
2022/03/15 06:06:08;;;;;;;0.20;0.20;;;;;;;20.53;34.59;102227.16;5131747;27;20076;-29
2022/03/15 06:08:34;;;;;;;0.20;0.20;;;;;;;20.54;34.96;102230.75;5128139;27;20434;-29
2022/03/15 06:11:02;;;;;;;0.10;0.10;;;;;;;20.53;35.09;102229.09;5128067;27;20058;-29
2022/03/15 06:13:29;;;;;;;0.10;0.10;;;;;;;20.53;34.58;102224.41;5131586;27;20466;-28
2022/03/15 06:15:54;;;;;;;0.10;0.10;;;;;;;20.52;35.01;102225.50;5134750;27;20045;-28
2022/03/15 06:18:20;;;;;;;0.10;0.10;;;;;;;20.52;34.94;102219.13;5126602;27;20039;-29
2022/03/15 06:20:46;;;;;;;0.10;0.10;;;;;;;20.53;34.66;102223.56;5130351;27;20168;-29
2022/03/15 06:23:12;;;;;;;0.10;0.10;;;;;;;20.52;34.77;102216.38;5113120;27;20039;-28
2022/03/15 06:25:38;;;;;;;0.20;0.20;;;;;;;20.53;34.89;102218.03;5127709;27;20055;-29
2022/03/15 06:28:03;;;;;;;0.20;0.20;;;;;;;20.51;35.04;102212.75;5116145;27;20043;-29
2022/03/15 06:30:30;;;;;;;0.15;0.15;;;;;;;20.51;34.73;102211.94;5137287;27;20543;-28
2022/03/15 06:32:56;;;;;;;0.15;0.15;;;;;;;20.52;34.60;102213.59;5130018;27;20043;-29
2022/03/15 06:35:21;;;;;;;0.20;0.20;;;;;;;20.51;35.07;102218.28;5129724;27;20327;-29
2022/03/15 06:37:49;;;;;;;0.20;0.20;;;;;;;20.51;34.73;102212.75;5127279;27;21316;-29
2022/03/15 06:40:17;;;;;;;0.15;0.15;;;;;;;20.51;35.00;102221.06;5131650;27;20423;-29
2022/03/15 06:42:43;;;;;;;;;;;;;;;20.52;34.77;102216.38;5127613;27;20420;-29
2022/03/15 06:45:10;;;;;;;0.10;0.10;;;;;;;20.52;34.77;102219.13;5121176;27;19924;-29
2022/03/15 06:47:36;;;;;;;0.20;0.20;;;;;;;20.52;34.77;102214.44;5121290;27;20336;-29
2022/03/15 06:50:04;;;;;;;0.20;0.20;;;;;;;20.52;34.68;102211.66;5122132;27;20047;-29
2022/03/15 06:52:30;;;;;;;0.20;0.20;;;;;;;20.52;34.69;102217.19;5125568;27;20089;-29
2022/03/15 06:54:55;;;;;;;0.20;0.20;;;;;;;20.52;34.84;102210.81;5109761;27;20487;-29
2022/03/15 06:57:21;;;;;;;0.20;0.20;;;;;;;20.52;34.97;102213.59;5125578;27;20031;-29
2022/03/15 06:59:48;;;;;;;0.20;0.20;;;;;;;20.53;35.00;102207.78;5112834;27;20079;-28
2022/03/15 07:02:13;;;;;;;0.20;0.20;;;;;;;20.53;34.98;102206.97;5116287;27;20058;-29
2022/03/15 07:04:40;;;;;;;0.10;0.10;;;;;;;20.52;34.99;102211.66;5118624;27;20055;-29
2022/03/15 07:07:07;;;;;;;0.20;0.20;;;;;;;20.53;34.81;102212.50;5115201;27;20472;-29
2022/03/15 07:09:32;;;;;;;0.20;0.20;;;;;;;20.53;34.76;102205.03;5117793;27;20094;-29
2022/03/15 07:11:58;;;;;;;0.20;0.20;;;;;;;20.53;34.93;102204.19;5115147;27;20039;-29
2022/03/15 07:14:24;;;;;;;0.17;0.17;;;;;;;20.52;34.97;102197.81;5115599;27;20047;-30
2022/03/15 07:16:49;;;;;;;0.15;0.15;;;;;;;20.53;34.75;102206.97;5115995;27;20047;-30
2022/03/15 07:19:15;;;;;;;0.10;0.10;;;;;;;20.53;34.68;102209.72;5120021;27;20309;-28
2022/03/15 07:21:41;;;;;;;0.13;0.13;;;;;;;20.52;34.83;102208.88;5113245;27;20052;-29
2022/03/15 07:24:07;;;;;;;0.10;0.10;;;;;;;20.52;34.73;102205.28;5117326;27;20206;-28
2022/03/15 07:26:32;;;;;;;0.20;0.20;;;;;;;20.53;34.88;102201.41;5118234;27;20046;-28
2022/03/15 07:28:58;;;;;;;0.20;0.20;;;;;;;20.52;34.81;102197.81;5115683;27;22267;-29
2022/03/15 07:31:24;;;;;;;0.20;0.20;;;;;;;20.43;34.00;102192.97;5113221;27;20050;-31
2022/03/15 07:33:50;;;;;;;0.20;0.20;;;;;;;20.42;34.82;102183.84;5114800;27;20047;-28
2022/03/15 07:36:18;;;;;;;0.10;0.10;;;;;;;20.50;34.82;102186.16;5107806;27;20051;-28
2022/03/15 07:38:44;;;;;;;0.20;0.20;;;;;;;20.53;34.75;102184.81;5111181;27;20168;-28
2022/03/15 07:41:09;;;;;;;0.20;0.20;;;;;;;20.54;34.84;102186.47;5108976;27;20044;-29
2022/03/15 07:43:35;;;;;;;0.15;0.15;;;;;;;20.57;34.67;102182.38;5108002;27;20445;-29
2022/03/15 07:46:01;;;;;;;0.20;0.20;;;;;;;20.59;34.75;102171.88;5114062;27;20309;-30
2022/03/15 07:48:27;;;;;;;0.10;0.10;;;;;;;20.58;34.45;102168.25;5087975;27;20058;-29
2022/03/15 07:50:52;;;;;;;0.13;0.13;;;;;;;20.59;34.85;102167.16;5107673;27;20043;-28
2022/03/15 07:53:19;;;;;;;0.10;0.10;;;;;;;20.60;34.85;102165.25;5102864;27;20047;-29
2022/03/15 07:55:44;;;;;;;0.20;0.20;;;;;;;20.61;34.54;102166.91;5104014;27;20780;-29
2022/03/15 07:58:10;;;;;;;0.20;0.20;;;;;;;20.62;34.88;102163.88;5109046;27;20039;-29
2022/03/15 08:00:36;;;;;;;0.10;0.10;;;;;;;20.65;34.69;102162.53;5106004;27;20039;-29
2022/03/15 08:03:02;;;;;;;0.20;0.20;;;;;;;20.65;34.76;102162.53;5115498;27;20039;-28
2022/03/15 08:05:28;;;;;;;0.20;0.20;;;;;;;20.65;34.79;102163.38;5108018;27;20154;-30
2022/03/15 08:07:54;;;;;;;0.13;0.13;;;;;;;20.66;34.79;102162.25;5099184;27;20071;-30
2022/03/15 08:10:22;;;;;;;0.20;0.20;;;;;;;20.66;34.66;102165.03;5106190;27;20043;-28
2022/03/15 08:12:48;;;;;;;0.20;0.20;;;;;;;20.67;34.69;102165.88;5108878;27;20096;-29
2022/03/15 08:15:14;;;;;;;0.20;0.20;;;;;;;20.67;34.53;102154.78;5079162;27;20477;-28
2022/03/15 08:17:40;;;;;;;0.10;0.10;;;;;;;20.67;34.59;102152.03;5100772;27;20055;-29
2022/03/15 08:20:08;;;;;;;0.10;0.10;;;;;;;20.69;34.47;102156.22;5104089;27;20082;-28
2022/03/15 08:22:34;;;;;;;0.20;0.20;;;;;;;20.70;34.34;102157.03;5108603;27;20081;-32
2022/03/15 08:24:59;;;;;;;0.20;0.20;;;;;;;20.69;34.56;102153.44;5088028;27;20138;-31
2022/03/15 08:27:25;;;;;;;0.10;0.10;;;;;;;20.76;34.31;102154.03;5109892;27;20243;-28
2022/03/15 08:29:51;;;;;;;0.20;0.20;;;;;;;20.77;34.53;102143.84;5110721;27;20056;-30
2022/03/15 08:32:17;;;;;;;0.10;0.10;;;;;;;20.78;34.20;102151.03;5107612;27;20135;-29
2022/03/15 08:34:43;;;;;;;0.20;0.20;;;;;;;20.79;34.53;102156.31;5102153;27;20067;-28
2022/03/15 08:37:10;;;;;;;0.10;0.10;;;;;;;20.80;34.16;102146.06;5109806;27;20049;-29
2022/03/15 08:39:35;;;;;;;0.20;0.20;;;;;;;20.82;34.40;102145.81;5109445;27;20051;-29
2022/03/15 08:42:02;;;;;;;0.10;0.10;;;;;;;20.80;34.25;102146.88;5109204;27;20051;-29
2022/03/15 08:44:28;;;;;;;0.17;0.17;;;;;;;20.83;34.24;102144.72;5093520;27;20067;-28
2022/03/15 08:46:54;;;;;;;0.20;0.20;;;;;;;20.83;34.35;102141.94;5095402;28;20070;-28
2022/03/15 08:49:20;;;;;;;0.20;0.20;;;;;;;20.82;34.19;102138.34;5107682;27;20043;-29
2022/03/15 08:51:46;;;;;;;0.20;0.20;;;;;;;20.85;34.51;102134.19;5107776;27;20730;-29
2022/03/15 08:54:12;;;;;;;0.20;0.20;;;;;;;20.84;34.10;102133.38;5106968;27;20529;-29
2022/03/15 08:56:42;;;;;;;0.20;0.20;;;;;;;20.85;34.38;102128.66;5092570;27;20055;-28
2022/03/15 08:59:09;;;;;;;0.20;0.20;;;;;;;20.86;34.57;102142.25;5110037;27;20252;-28
2022/03/15 09:01:35;;;;;;;0.10;0.10;;;;;;;20.87;34.07;102140.31;5107922;27;20078;-29
2022/03/15 09:04:02;;;;;;;0.10;0.10;;;;;;;20.89;34.32;102138.09;5108425;27;20075;-28
2022/03/15 09:06:28;;;;;;;0.20;0.20;;;;;;;20.90;34.31;102145.34;5109033;27;20177;-30
2022/03/15 09:08:54;;;;;;;0.20;0.20;;;;;;;20.89;34.27;102135.34;5104902;27;20175;-29
2022/03/15 09:11:19;;;;;;;0.20;0.20;;;;;;;20.90;34.47;102140.63;5101266;27;20047;-29
2022/03/15 09:13:45;;;;;;;0.20;0.20;;;;;;;20.92;34.23;102140.34;5097408;27;20055;-28
2022/03/15 09:16:12;;;;;;;0.20;0.20;;;;;;;20.96;34.48;102128.50;5097311;27;20039;-31
2022/03/15 09:18:39;;;;;;;0.20;0.20;;;;;;;21.00;34.41;102129.63;5101602;27;20047;-29
2022/03/15 09:21:06;;;;;;;0.20;0.20;;;;;;;20.97;34.73;102124.63;5101402;27;20184;-28
2022/03/15 09:23:32;;;;;;;0.20;0.20;;;;;;;21.00;34.34;102128.81;5096752;27;20188;-28
2022/03/15 09:25:58;;;;;;;0.20;0.20;;;;;;;20.98;34.56;102114.38;5100317;27;20071;-27
2022/03/15 09:28:29;;;;;;;0.10;0.10;;;;;;;21.00;34.39;102118.56;5104137;27;20047;-31
2022/03/15 09:30:55;;;;;;;0.20;0.20;;;;;;;20.99;34.27;102111.34;5105029;27;20058;-31
2022/03/15 09:33:23;;;;;;;0.10;0.10;;;;;;;20.99;34.37;102111.34;5105477;27;20051;-30
2022/03/15 09:35:49;;;;;;;0.17;0.17;;;;;;;21.00;34.17;102099.16;5099123;27;20677;-28
2022/03/15 09:38:15;;;;;;;0.20;0.20;;;;;;;21.02;34.47;102107.19;5060225;27;20173;-29
2022/03/15 09:40:41;;;;;;;0.10;0.10;;;;;;;21.02;34.28;102098.91;5079416;27;20044;-28
2022/03/15 09:43:08;;;;;;;0.10;0.10;;;;;;;21.03;34.17;102097.81;5101619;27;20115;-29
2022/03/15 09:45:35;;;;;;;0.20;0.20;;;;;;;21.04;34.35;102093.94;5103799;27;20079;-29
2022/03/15 09:48:06;;;;;;;0.20;0.20;;;;;;;21.05;34.21;102098.38;5073171;27;20862;-29
2022/03/15 09:50:32;;;;;;;0.17;0.17;;;;;;;21.05;34.26;102087.28;5104117;27;20127;-29
2022/03/15 09:52:59;;;;;;;0.10;0.10;;;;;;;21.06;34.35;102086.19;5087822;27;20047;-28
2022/03/15 09:55:25;;;;;;;0.20;0.20;;;;;;;21.06;34.30;102088.97;5091523;27;20852;-29
2022/03/15 09:57:52;;;;;;;0.10;0.10;;;;;;;21.13;34.61;102088.75;5104559;27;20082;-33
2022/03/15 10:00:19;;;;;;;0.20;0.20;;;;;;;21.17;34.20;102092.66;5106268;27;20142;-31
2022/03/15 10:02:46;;;;;;;0.20;0.20;;;;;;;21.15;34.30;102084.59;5109817;27;20509;-29
2022/03/15 10:05:12;;;;;;;0.20;0.20;;;;;;;21.21;34.20;102086.31;5103758;27;20081;-30
2022/03/15 10:07:38;;;;;;;0.17;0.17;;;;;;;21.17;34.22;102081.56;5091036;28;20044;-30
2022/03/15 10:10:06;;;;;;;0.10;0.10;;;;;;;21.24;34.25;102079.38;5110632;27;20172;-29
2022/03/15 10:12:33;;;;;;;0.10;0.10;;;;;;;21.24;34.34;102085.78;5107262;27;20166;-29
2022/03/15 10:15:10;;;;;;;0.20;0.20;;;;;;;21.25;34.07;102081.91;5107816;27;20131;-30
2022/03/15 10:17:44;;;;;;;0.13;0.13;;;;;;;21.25;34.45;102083.84;5107129;27;20112;-29
2022/03/15 10:20:13;;;;;;;0.20;0.20;;;;;;;21.25;34.32;102084.69;5103854;27;20051;-29
2022/03/15 10:22:49;;;;;;;0.20;0.20;;;;;;;21.27;34.33;102078.84;5104089;27;20516;-29
2022/03/15 10:25:16;;;;;;;0.20;0.20;;;;;;;21.28;34.41;102070.25;5109144;27;20085;-29
2022/03/15 10:27:42;;;;;;;0.10;0.10;;;;;;;21.28;34.17;102067.50;5111719;27;20570;-31
2022/03/15 10:30:09;;;;;;;0.10;0.10;;;;;;;21.30;34.15;102068.09;5089580;27;20557;-28
2022/03/15 10:32:35;;;;;;;0.20;0.20;;;;;;;21.30;34.14;102072.78;5102861;27;20083;-30
2022/03/15 10:35:08;;;;;;;0.20;0.20;;;;;;;21.28;34.27;102066.66;5102537;27;20474;-29
2022/03/15 10:37:35;;;;;;;0.20;0.20;;;;;;;21.35;34.02;102063.69;5086684;28;20143;-27
2022/03/15 10:40:02;;;;;;;0.10;0.10;;;;;;;21.35;33.92;102075.63;5106204;27;20481;-28
2022/03/15 10:42:28;;;;;;;0.10;0.10;;;;;;;21.34;34.11;102068.41;5109397;27;20114;-28
2022/03/15 10:44:56;;;;;;;0.10;0.10;;;;;;;21.35;34.02;102075.63;5108206;27;20066;-30
2022/03/15 10:47:22;;;;;;;0.10;0.10;;;;;;;21.35;34.02;102075.63;5095662;27;20252;-29
2022/03/15 10:49:50;;;;;;;0.20;0.20;;;;;;;21.35;34.12;102064.53;5099807;27;20099;-29
2022/03/15 10:52:36;;;;;;;;;;;;;;;21.36;34.13;102063.44;5103809;27;20130;-29
2022/03/15 10:55:28;;;;;;;0.20;0.20;;;;;;;21.36;34.17;102060.66;5092360;27;21595;-30
2022/03/15 10:57:56;;;;;;;0.20;0.20;;;;;;;21.37;33.98;102053.16;5107897;27;20207;-29
2022/03/15 11:00:26;;;;;;;0.20;0.20;;;;;;;21.37;34.15;102053.16;5088227;27;20482;-28
2022/03/15 11:02:52;;;;;;;0.10;0.10;;;;;;;21.38;34.03;102052.91;5107944;27;20063;-29
2022/03/15 11:05:27;;;;;;;0.20;0.20;;;;;;;21.38;34.33;102052.91;5113797;27;20081;-29
2022/03/15 11:07:53;;;;;;;0.20;0.20;;;;;;;21.40;34.05;102055.41;5076069;27;20053;-29
2022/03/15 11:10:19;;;;;;;0.20;0.20;;;;;;;21.39;34.04;102040.72;5110676;27;20048;-32
2022/03/15 11:13:07;;;;;;;0.20;0.20;;;;;;;21.41;34.09;102046.81;5110668;27;20437;-28
2022/03/15 11:15:41;;;;;;;0.20;0.20;;;;;;;21.41;34.04;102041.28;5113874;27;20071;-28
2022/03/15 11:18:08;;;;;;;0.20;0.20;;;;;;;21.41;34.09;102038.50;5095693;27;20078;-29
2022/03/15 11:20:36;;;;;;;0.10;0.10;;;;;;;21.42;34.09;102037.44;5110328;27;20153;-28
2022/03/15 11:23:05;;;;;;;0.10;0.10;;;;;;;21.42;34.11;102036.59;5105932;27;20258;-29
2022/03/15 11:25:41;;;;;;;0.20;0.20;;;;;;;21.41;34.00;102040.44;5112425;27;20320;-28